Artesian, South Dakota
Current Conditions -  °F | °C
As of 8:53 PM on Friday 19 Dec 2014 (Local Time) from KMHE Reporting Station
Haze Haze  
Wind Chill: 19°   Ceiling: 700
Heat Index: 30°   Visibility: 5mi
Dew Point: 27°   Wind: 15mph
Humidity: 88%   Direction: 170°S
Pressure: 30.05"   Gusts: NA
Location:  44.01°N, 97.92°W
Report Text: KMHE 200253Z AUTO 17013KT 5SM BR OVC007 M01/M03 A3005 RMK AO2 SLP191 T10111028 58005
Loading
Personal Weather Stations






























Interactive Weather Map New forecast layout! Learn more

10-Day Weather Forecast

Advertisements
Track Severe Weather on mobile